createdAt,value
2019-02-15T00:02:30.547Z,7.87
2019-02-15T00:04:59.088Z,7.27
2019-02-15T00:07:27.516Z,8.13
2019-02-15T00:09:55.983Z,7.93
2019-02-15T00:12:24.370Z,7.60
2019-02-15T00:14:52.888Z,7.70
2019-02-15T00:17:49.824Z,7.90
2019-02-15T00:20:25.639Z,7.50
2019-02-15T00:22:54.096Z,7.50
2019-02-15T00:25:22.764Z,8.00
2019-02-15T00:27:51.144Z,7.83
2019-02-15T00:30:19.605Z,8.27
2019-02-15T00:32:47.984Z,7.43
2019-02-15T00:35:16.444Z,7.43
2019-02-15T00:37:44.928Z,8.47
2019-02-15T00:40:13.368Z,8.10
2019-02-15T00:42:41.736Z,8.00
2019-02-15T00:45:11.773Z,8.17
2019-02-15T00:47:52.148Z,7.73
2019-02-15T00:50:38.384Z,8.00
2019-02-15T00:53:28.806Z,7.83
2019-02-15T00:56:19.644Z,7.40
2019-02-15T00:59:25.656Z,8.00
2019-02-15T01:02:01.625Z,7.47
2019-02-15T01:04:55.656Z,7.30
2019-02-15T01:07:37.388Z,7.83
2019-02-15T01:10:13.837Z,7.60
2019-02-15T01:12:47.876Z,7.67
2019-02-15T01:15:16.376Z,8.00
2019-02-15T01:17:44.893Z,7.63
2019-02-15T01:20:13.685Z,7.50
2019-02-15T01:22:42.069Z,7.70
2019-02-15T01:25:10.548Z,7.27
2019-02-15T01:27:53.181Z,8.07
2019-02-15T01:30:48.977Z,7.70
2019-02-15T01:33:35.529Z,7.80
2019-02-15T01:36:17.705Z,6.73
2019-02-15T01:38:52.541Z,7.97
2019-02-15T01:41:43.299Z,7.27
2019-02-15T01:44:33.977Z,6.87
2019-02-15T01:47:09.547Z,7.57
2019-02-15T01:49:38.005Z,7.33
2019-02-15T01:52:06.405Z,7.97
2019-02-15T01:54:35.141Z,7.20
2019-02-15T01:57:03.601Z,7.30
2019-02-15T01:59:31.988Z,7.37
2019-02-15T02:02:00.626Z,7.53
2019-02-15T02:04:29.206Z,7.27
2019-02-15T02:06:57.690Z,7.50
2019-02-15T02:09:26.197Z,7.80
2019-02-15T02:11:54.677Z,7.33
2019-02-15T02:14:23.122Z,7.90
2019-02-15T02:16:51.606Z,7.27
2019-02-15T02:19:20.095Z,7.60
2019-02-15T02:21:48.482Z,7.40
2019-02-15T02:24:16.961Z,7.17
2019-02-15T02:26:45.444Z,6.80
2019-02-15T02:29:14.406Z,7.57
2019-02-15T02:31:43.041Z,7.60
2019-02-15T02:34:11.391Z,7.03
2019-02-15T02:36:49.831Z,7.17
2019-02-15T02:39:18.198Z,7.70
2019-02-15T02:41:46.618Z,7.00
2019-02-15T02:44:15.021Z,7.17
2019-02-15T02:46:43.498Z,7.87
2019-02-15T02:49:11.959Z,7.73
2019-02-15T02:51:40.503Z,7.67
2019-02-15T02:54:09.305Z,7.67
2019-02-15T02:56:37.674Z,7.07
2019-02-15T02:59:06.176Z,8.00
2019-02-15T03:01:34.570Z,7.77
2019-02-15T03:04:03.335Z,7.43
2019-02-15T03:06:31.795Z,7.93
2019-02-15T03:09:00.271Z,8.10
2019-02-15T03:11:28.658Z,7.63
2019-02-15T03:13:57.055Z,7.93
2019-02-15T03:16:25.494Z,8.30
2019-02-15T03:18:54.309Z,7.67
2019-02-15T03:21:22.784Z,8.13
2019-02-15T03:23:51.487Z,8.60
2019-02-15T03:26:19.968Z,7.93
2019-02-15T03:28:48.376Z,7.87
2019-02-15T03:31:16.844Z,8.77
2019-02-15T03:33:45.615Z,8.50
2019-02-15T03:36:22.171Z,8.43
2019-02-15T03:39:01.379Z,9.10
2019-02-15T03:41:31.675Z,8.43
2019-02-15T03:44:00.139Z,7.70
2019-02-15T03:46:28.627Z,8.83
2019-02-15T03:48:57.111Z,8.43
2019-02-15T03:51:25.597Z,8.77
2019-02-15T03:53:54.112Z,8.40
2019-02-15T03:56:22.510Z,8.10
2019-02-15T03:58:50.984Z,7.63
2019-02-15T04:01:19.456Z,8.83
2019-02-15T04:03:47.944Z,8.80
2019-02-15T04:06:16.437Z,8.00
2019-02-15T04:08:44.908Z,8.67
2019-02-15T04:11:13.387Z,8.97
2019-02-15T04:13:42.536Z,8.93
2019-02-15T04:16:11.016Z,9.53
2019-02-15T04:18:39.397Z,8.97
2019-02-15T04:21:07.792Z,8.80
2019-02-15T04:23:36.213Z,9.00
2019-02-15T04:26:05.067Z,9.37
2019-02-15T04:28:33.476Z,9.40
2019-02-15T04:31:01.864Z,9.00
2019-02-15T04:33:30.332Z,9.13
2019-02-15T04:35:59.117Z,9.17
2019-02-15T04:38:27.600Z,8.80
2019-02-15T04:40:55.999Z,9.03
2019-02-15T04:43:24.392Z,9.33
2019-02-15T04:45:53.049Z,9.37
2019-02-15T04:48:21.496Z,9.00
2019-02-15T04:50:50.021Z,9.40
2019-02-15T04:53:18.425Z,9.17
2019-02-15T04:55:46.897Z,8.83
2019-02-15T04:58:15.319Z,9.53
2019-02-15T05:00:43.717Z,9.20
2019-02-15T05:03:12.209Z,9.23
2019-02-15T05:05:40.621Z,9.93
2019-02-15T05:08:09.008Z,9.27
2019-02-15T05:10:37.445Z,8.83
2019-02-15T05:13:05.941Z,9.47
2019-02-15T05:15:34.428Z,9.30
2019-02-15T05:18:02.988Z,9.40
2019-02-15T05:20:31.488Z,9.37
2019-02-15T05:23:00.058Z,9.60
2019-02-15T05:25:28.570Z,9.10
2019-02-15T05:27:57.354Z,9.63
2019-02-15T05:30:25.752Z,9.70
2019-02-15T05:32:54.258Z,8.80
2019-02-15T05:35:23.081Z,10.03
2019-02-15T05:37:51.626Z,10.07
2019-02-15T05:40:20.073Z,9.13
2019-02-15T05:42:48.550Z,9.70
2019-02-15T05:45:17.095Z,9.50
2019-02-15T05:47:45.616Z,9.50
2019-02-15T05:50:14.189Z,9.90
2019-02-15T05:52:43.253Z,9.28
2019-02-15T05:55:11.778Z,8.90
2019-02-15T05:57:40.497Z,9.77
2019-02-15T06:00:09.346Z,10.20
2019-02-15T06:02:37.813Z,8.60
2019-02-15T06:05:06.578Z,9.30
2019-02-15T06:07:35.067Z,8.63
2019-02-15T06:10:03.579Z,9.43
2019-02-15T06:12:32.006Z,9.50
2019-02-15T06:15:00.641Z,8.57
2019-02-15T06:17:29.286Z,9.60
2019-02-15T06:19:57.703Z,9.03
2019-02-15T06:22:26.318Z,9.47
2019-02-15T06:24:54.805Z,9.30
2019-02-15T06:27:23.286Z,10.40
2019-02-15T06:29:51.731Z,9.67
2019-02-15T06:32:20.182Z,12.63
2019-02-15T06:34:48.690Z,11.73
2019-02-15T06:37:17.089Z,10.03
2019-02-15T06:39:45.542Z,9.37
2019-02-15T06:42:13.979Z,9.33
2019-02-15T06:44:43.127Z,9.10
2019-02-15T06:47:11.525Z,9.83
2019-02-15T06:49:40.823Z,8.87
2019-02-15T06:52:09.319Z,10.87
2019-02-15T06:54:37.850Z,9.03
2019-02-15T06:57:06.254Z,8.27
2019-02-15T06:59:46.418Z,9.20
2019-02-15T07:02:32.918Z,9.23
2019-02-15T07:05:23.378Z,9.03
2019-02-15T07:07:51.846Z,9.90
2019-02-15T07:10:20.286Z,9.80
2019-02-15T07:12:49.025Z,10.07
2019-02-15T07:15:17.614Z,16.53
2019-02-15T07:17:46.178Z,10.97
2019-02-15T07:20:14.574Z,9.13
2019-02-15T07:22:44.050Z,8.40
2019-02-15T07:25:12.698Z,20.97
2019-02-15T07:27:41.154Z,10.30
2019-02-15T07:30:10.483Z,9.10
2019-02-15T07:32:38.951Z,8.60
2019-02-15T07:35:10.027Z,8.47
2019-02-15T07:37:38.475Z,8.43
2019-02-15T07:40:07.269Z,8.83
2019-02-15T07:42:35.731Z,8.77
2019-02-15T07:45:04.516Z,7.23
2019-02-15T07:47:32.923Z,7.93
2019-02-15T07:50:01.379Z,8.07
2019-02-15T07:52:29.787Z,7.70
2019-02-15T07:54:58.275Z,7.10
2019-02-15T07:57:27.063Z,8.27
2019-02-15T07:59:55.471Z,8.37
2019-02-15T08:02:23.887Z,8.10
2019-02-15T08:04:52.659Z,8.87
2019-02-15T08:07:21.169Z,9.50
2019-02-15T08:09:49.671Z,8.60
2019-02-15T08:12:18.153Z,7.30
2019-02-15T08:14:46.675Z,6.93
2019-02-15T08:17:16.711Z,7.27
2019-02-15T08:19:45.175Z,6.60
2019-02-15T08:22:14.143Z,6.30
2019-02-15T08:24:43.064Z,6.33
2019-02-15T08:27:11.988Z,6.20
2019-02-15T08:29:40.940Z,5.70
2019-02-15T08:32:09.817Z,6.40
2019-02-15T08:34:38.820Z,6.03
2019-02-15T08:37:07.813Z,6.10
2019-02-15T08:39:36.863Z,6.13
2019-02-15T08:42:05.809Z,5.67
2019-02-15T08:44:34.770Z,6.05
2019-02-15T08:47:04.076Z,5.77
2019-02-15T08:49:32.476Z,5.90
2019-02-15T08:52:01.239Z,5.93
2019-02-15T08:54:30.532Z,5.23
2019-02-15T08:56:59.754Z,5.58
2019-02-15T08:59:29.097Z,5.80
2019-02-15T09:02:26.452Z,5.50
2019-02-15T09:04:55.424Z,5.40
2019-02-15T09:07:24.456Z,5.50
2019-02-15T09:09:55.480Z,4.77
2019-02-15T09:12:24.848Z,5.57
2019-02-15T09:14:53.869Z,5.00
2019-02-15T09:17:23.000Z,5.20
2019-02-15T09:19:51.928Z,4.80
2019-02-15T09:22:20.840Z,4.83
2019-02-15T09:24:49.728Z,4.58
2019-02-15T09:27:32.952Z,4.83
2019-02-15T09:30:01.338Z,4.17
2019-02-15T09:32:29.716Z,5.17
2019-02-15T09:34:58.177Z,4.43
2019-02-15T09:37:26.641Z,4.63
2019-02-15T09:39:55.027Z,4.43
2019-02-15T09:42:23.417Z,4.40
2019-02-15T09:44:51.841Z,5.00
2019-02-15T09:47:20.657Z,4.73
2019-02-15T09:49:49.057Z,4.97
2019-02-15T09:52:17.464Z,4.50
2019-02-15T09:54:45.855Z,4.13
2019-02-15T09:57:14.248Z,5.20
2019-02-15T09:59:43.173Z,4.53
2019-02-15T10:02:12.049Z,4.50
2019-02-15T10:04:40.432Z,4.90
2019-02-15T10:07:08.969Z,5.10
2019-02-15T10:09:37.429Z,4.40
2019-02-15T10:12:06.561Z,4.30
2019-02-15T10:14:35.577Z,4.73
2019-02-15T10:17:04.017Z,5.03
2019-02-15T10:19:32.404Z,4.40
2019-02-15T10:22:00.781Z,4.50
2019-02-15T10:24:29.161Z,3.97
2019-02-15T10:26:57.546Z,5.40
2019-02-15T10:29:25.997Z,4.20
2019-02-15T10:31:54.493Z,4.20
2019-02-15T10:34:23.173Z,4.00
2019-02-15T10:36:51.566Z,3.93
2019-02-15T10:39:19.954Z,4.10
2019-02-15T10:41:48.526Z,4.10
2019-02-15T10:44:17.022Z,3.93
2019-02-15T10:46:45.507Z,4.07
2019-02-15T10:49:14.162Z,3.90
2019-02-15T10:51:43.374Z,3.80
2019-02-15T10:54:11.762Z,4.03
2019-02-15T10:56:40.726Z,3.90
2019-02-15T10:59:11.192Z,3.93
2019-02-15T11:01:40.270Z,3.30
2019-02-15T11:04:08.738Z,3.90
2019-02-15T11:06:37.586Z,3.37
2019-02-15T11:09:07.542Z,3.40
2019-02-15T11:11:36.466Z,3.57
2019-02-15T11:14:05.470Z,3.80
2019-02-15T11:16:34.327Z,3.63
2019-02-15T11:19:03.254Z,3.47
2019-02-15T11:21:32.122Z,3.33
2019-02-15T11:24:00.999Z,3.30
2019-02-15T11:26:30.003Z,3.23
2019-02-15T11:28:58.883Z,3.40
2019-02-15T11:31:28.163Z,3.07
2019-02-15T11:33:56.650Z,3.20
2019-02-15T11:36:25.023Z,3.30
2019-02-15T11:38:53.450Z,3.40
2019-02-15T11:41:21.907Z,3.10
2019-02-15T11:43:50.398Z,3.07
2019-02-15T11:46:18.887Z,3.00
2019-02-15T11:48:47.303Z,2.77
2019-02-15T11:51:15.788Z,2.33
2019-02-15T11:53:44.791Z,2.27
2019-02-15T11:56:13.788Z,2.10
2019-02-15T11:58:43.031Z,2.23
2019-02-15T12:01:12.062Z,2.10
2019-02-15T12:03:40.987Z,2.20
2019-02-15T12:06:09.959Z,2.20
2019-02-15T12:08:38.835Z,2.30
2019-02-15T12:11:08.176Z,2.53
2019-02-15T12:13:37.376Z,2.10
2019-02-15T12:16:06.345Z,2.10
2019-02-15T12:18:35.310Z,2.13
2019-02-15T12:21:04.229Z,2.00
2019-02-15T12:23:33.168Z,2.20
2019-02-15T12:26:02.179Z,2.50
2019-02-15T12:28:31.142Z,2.40
2019-02-15T12:31:00.125Z,2.50
2019-02-15T12:33:28.571Z,2.10
2019-02-15T12:35:57.520Z,2.17
2019-02-15T12:38:26.380Z,2.10
2019-02-15T12:40:55.325Z,2.33
2019-02-15T12:43:24.413Z,1.90
2019-02-15T12:45:53.284Z,2.13
2019-02-15T12:48:22.272Z,2.13
2019-02-15T12:50:51.227Z,2.50
2019-02-15T12:53:20.485Z,2.27
2019-02-15T12:55:49.604Z,2.83
2019-02-15T12:58:18.557Z,2.13
2019-02-15T13:00:47.501Z,2.33
2019-02-15T13:03:16.384Z,2.17
2019-02-15T13:05:45.316Z,2.67
2019-02-15T13:08:14.207Z,2.17
2019-02-15T13:10:43.817Z,2.30
2019-02-15T13:13:12.705Z,2.20
2019-02-15T13:15:41.660Z,2.87
2019-02-15T13:18:10.606Z,2.40
2019-02-15T13:20:39.444Z,2.20
2019-02-15T13:23:08.409Z,2.37
2019-02-15T13:25:37.381Z,2.30
2019-02-15T13:28:06.320Z,2.60
2019-02-15T13:30:35.405Z,2.37
2019-02-15T13:33:04.422Z,2.20
2019-02-15T13:35:33.616Z,2.63
2019-02-15T13:38:02.567Z,2.37
2019-02-15T13:40:31.524Z,2.60
2019-02-15T13:43:00.537Z,2.00
2019-02-15T13:45:29.672Z,2.20
2019-02-15T13:47:58.649Z,2.03
2019-02-15T13:50:27.841Z,2.10
2019-02-15T13:52:56.745Z,2.30
2019-02-15T13:55:25.698Z,2.30
2019-02-15T13:57:54.093Z,2.23
2019-02-15T14:00:22.473Z,2.20
2019-02-15T14:02:50.865Z,2.83
2019-02-15T14:05:19.289Z,2.20
2019-02-15T14:07:47.677Z,2.27
2019-02-15T14:10:16.142Z,2.70
2019-02-15T14:12:44.559Z,2.10
2019-02-15T14:15:13.122Z,1.93
2019-02-15T14:17:45.577Z,2.50
2019-02-15T14:20:11.827Z,2.20
2019-02-15T14:22:40.290Z,2.30
2019-02-15T14:25:09.120Z,2.20
2019-02-15T14:27:37.613Z,2.27
2019-02-15T14:30:06.582Z,2.40
2019-02-15T14:32:35.054Z,2.60
2019-02-15T14:35:04.214Z,2.30
2019-02-15T14:37:32.682Z,2.40
2019-02-15T14:40:01.122Z,2.90
2019-02-15T14:42:29.578Z,2.77
2019-02-15T14:44:58.046Z,2.27
2019-02-15T14:47:26.438Z,2.83
2019-02-15T14:49:54.884Z,2.80
2019-02-15T14:52:23.354Z,2.33
2019-02-15T14:54:51.831Z,2.57
2019-02-15T14:57:20.222Z,2.73
2019-02-15T14:59:48.695Z,2.50
2019-02-15T15:02:17.238Z,2.30
2019-02-15T15:04:46.451Z,2.53
2019-02-15T15:07:14.934Z,2.30
2019-02-15T15:09:43.655Z,2.70
2019-02-15T15:12:12.079Z,2.50
2019-02-15T15:14:40.584Z,2.60
2019-02-15T15:17:09.270Z,2.80
2019-02-15T15:19:37.725Z,2.87
2019-02-15T15:22:06.254Z,2.40
2019-02-15T15:24:34.655Z,3.10
2019-02-15T15:27:03.129Z,3.63
2019-02-15T15:29:31.506Z,3.40
2019-02-15T15:32:00.215Z,2.87
2019-02-15T15:34:28.779Z,3.30
2019-02-15T15:36:57.167Z,3.00
2019-02-15T15:39:25.919Z,2.67
2019-02-15T15:41:54.371Z,3.13
2019-02-15T15:44:22.823Z,2.70
2019-02-15T15:46:51.584Z,2.50
2019-02-15T15:49:19.979Z,2.50
2019-02-15T15:51:48.399Z,2.60
2019-02-15T15:54:16.796Z,2.60
2019-02-15T15:56:45.363Z,3.10
2019-02-15T15:59:13.851Z,3.50
2019-02-15T16:01:42.323Z,2.90
2019-02-15T16:04:10.847Z,2.60
2019-02-15T16:06:39.231Z,2.50
2019-02-15T16:09:08.052Z,2.70
2019-02-15T16:11:36.570Z,2.37
2019-02-15T16:14:05.090Z,2.60
2019-02-15T16:16:33.628Z,2.47
2019-02-15T16:19:02.007Z,2.60
2019-02-15T16:21:30.395Z,2.70
2019-02-15T16:23:58.829Z,3.13
2019-02-15T16:26:27.535Z,3.73
2019-02-15T16:28:55.916Z,3.27
2019-02-15T16:31:24.412Z,4.50
2019-02-15T16:33:52.852Z,3.47
2019-02-15T16:36:21.228Z,3.77
2019-02-15T16:38:49.616Z,3.90
2019-02-15T16:41:18.039Z,4.40
2019-02-15T16:43:47.292Z,5.87
2019-02-15T16:46:15.703Z,5.30
2019-02-15T16:48:44.144Z,6.37
2019-02-15T16:51:12.556Z,8.80
2019-02-15T16:53:40.948Z,12.40
2019-02-15T16:56:09.360Z,18.67
2019-02-15T16:58:37.804Z,22.03
2019-02-15T17:01:06.268Z,27.03
2019-02-15T17:03:34.668Z,12.33
2019-02-15T17:06:03.085Z,6.90
2019-02-15T17:08:31.541Z,6.30
2019-02-15T17:11:00.121Z,6.23
2019-02-15T17:13:28.503Z,5.20
2019-02-15T17:15:56.910Z,5.73
2019-02-15T17:18:25.316Z,6.33
2019-02-15T17:20:53.717Z,6.20
2019-02-15T17:23:22.121Z,6.30
2019-02-15T17:25:50.525Z,6.90
2019-02-15T17:28:18.937Z,7.53
2019-02-15T17:30:47.713Z,7.53
2019-02-15T17:33:16.169Z,7.47
2019-02-15T17:35:44.573Z,7.47
2019-02-15T17:38:13.037Z,7.37
2019-02-15T17:40:41.465Z,8.57
2019-02-15T17:43:10.162Z,10.40
2019-02-15T17:45:38.597Z,7.73
2019-02-15T17:48:07.285Z,6.50
2019-02-15T17:50:35.706Z,6.00
2019-02-15T17:53:04.149Z,5.50
2019-02-15T17:55:32.617Z,7.13
2019-02-15T17:58:01.213Z,7.47
2019-02-15T18:00:31.086Z,7.30
2019-02-15T18:02:59.646Z,7.17
2019-02-15T18:05:28.607Z,8.43
2019-02-15T18:07:57.340Z,7.80
2019-02-15T18:10:25.891Z,7.00
2019-02-15T18:12:54.297Z,7.10
2019-02-15T18:15:22.673Z,7.57
2019-02-15T18:17:51.150Z,7.13
2019-02-15T18:20:19.665Z,6.40
2019-02-15T18:22:48.044Z,7.07
2019-02-15T18:25:16.514Z,8.13
2019-02-15T18:27:45.350Z,8.47
2019-02-15T18:30:13.787Z,5.77
2019-02-15T18:32:42.246Z,5.87
2019-02-15T18:35:10.754Z,4.73
2019-02-15T18:37:39.254Z,5.27
2019-02-15T18:40:08.098Z,4.93
2019-02-15T18:42:36.626Z,5.30
2019-02-15T18:45:05.370Z,6.27
2019-02-15T18:47:33.782Z,5.80
2019-02-15T18:50:02.198Z,5.07
2019-02-15T18:52:30.686Z,6.57
2019-02-15T18:54:59.150Z,5.70
2019-02-15T18:57:27.902Z,6.60
2019-02-15T18:59:56.318Z,5.97
2019-02-15T19:02:24.702Z,7.67
2019-02-15T19:04:53.142Z,8.00
2019-02-15T19:07:21.690Z,6.27
2019-02-15T19:09:50.347Z,6.63
2019-02-15T19:12:18.798Z,8.47
2019-02-15T19:14:48.067Z,9.20
2019-02-15T19:17:16.547Z,9.63
2019-02-15T19:19:45.030Z,9.53
2019-02-15T19:22:13.435Z,7.30
2019-02-15T19:24:41.908Z,8.70
2019-02-15T19:27:10.390Z,8.20
2019-02-15T19:29:38.903Z,9.50
2019-02-15T19:32:07.387Z,11.77
2019-02-15T19:34:36.191Z,10.43
2019-02-15T19:37:05.376Z,9.30
2019-02-15T19:39:33.776Z,8.50
2019-02-15T19:42:02.875Z,8.37
2019-02-15T19:44:31.286Z,7.87
2019-02-15T19:46:59.695Z,7.50
2019-02-15T19:49:28.095Z,6.70
2019-02-15T19:51:56.559Z,6.90
2019-02-15T19:54:24.967Z,6.77
2019-02-15T19:56:53.443Z,6.63
2019-02-15T19:59:21.928Z,6.37
2019-02-15T20:01:50.401Z,6.40
2019-02-15T20:04:18.781Z,6.30
2019-02-15T20:06:48.832Z,8.63
2019-02-15T20:09:17.239Z,7.87
2019-02-15T20:11:45.663Z,11.67
2019-02-15T20:14:14.187Z,7.87
2019-02-15T20:16:42.643Z,8.20
2019-02-15T20:19:11.087Z,8.30
2019-02-15T20:21:39.556Z,8.93
2019-02-15T20:24:08.025Z,8.83
2019-02-15T20:26:36.515Z,9.43
2019-02-15T20:29:04.937Z,10.47
2019-02-15T20:31:33.789Z,10.97
2019-02-15T20:34:02.188Z,11.80
2019-02-15T20:36:30.655Z,10.43
2019-02-15T20:38:59.220Z,11.00
2019-02-15T20:41:27.655Z,10.13
2019-02-15T20:43:56.135Z,11.17
2019-02-15T20:46:24.528Z,11.13
2019-02-15T20:49:04.351Z,11.10
2019-02-15T20:51:23.120Z,9.73
2019-02-15T20:53:51.738Z,11.87
2019-02-15T20:56:20.199Z,11.07
2019-02-15T20:58:48.713Z,10.80
2019-02-15T21:01:17.160Z,10.40
2019-02-15T21:03:45.579Z,10.10
2019-02-15T21:06:14.662Z,10.77
2019-02-15T21:08:43.348Z,10.50
2019-02-15T21:11:11.779Z,10.30
2019-02-15T21:13:40.247Z,9.63
2019-02-15T21:16:08.735Z,9.80
2019-02-15T21:18:37.168Z,9.93
2019-02-15T21:21:24.860Z,10.37
2019-02-15T21:23:53.708Z,9.77
2019-02-15T21:26:22.148Z,10.70
2019-02-15T21:28:50.800Z,10.00
2019-02-15T21:31:19.237Z,10.83
2019-02-15T21:33:48.668Z,9.90
2019-02-15T21:36:17.378Z,9.60
2019-02-15T21:38:45.912Z,9.67
2019-02-15T21:41:14.429Z,9.57
2019-02-15T21:43:42.930Z,8.93
2019-02-15T21:46:11.348Z,7.87
2019-02-15T21:48:39.812Z,7.20
2019-02-15T21:51:08.237Z,19.97
2019-02-15T21:53:36.760Z,9.20
2019-02-15T21:56:05.256Z,9.97
2019-02-15T21:58:33.737Z,7.33
2019-02-15T22:01:02.641Z,6.90
2019-02-15T22:03:31.605Z,5.67
2019-02-15T22:06:00.404Z,6.07
2019-02-15T22:08:28.824Z,6.03
2019-02-15T22:10:57.212Z,5.70
2019-02-15T22:13:25.592Z,5.40
2019-02-15T22:15:54.277Z,5.17
2019-02-15T22:18:22.711Z,6.13
2019-02-15T22:20:51.128Z,5.87
2019-02-15T22:23:19.862Z,11.00
2019-02-15T22:25:49.276Z,7.83
2019-02-15T22:28:17.749Z,6.40
2019-02-15T22:30:46.165Z,5.53
2019-02-15T22:33:14.577Z,6.20
2019-02-15T22:35:42.964Z,5.97
2019-02-15T22:38:11.436Z,5.93
2019-02-15T22:40:41.051Z,6.10
2019-02-15T22:43:16.874Z,5.67
2019-02-15T22:45:45.349Z,5.60
2019-02-15T22:48:13.787Z,5.50
2019-02-15T22:50:42.623Z,5.77
2019-02-15T22:53:11.041Z,5.67
2019-02-15T22:55:39.523Z,5.70
2019-02-15T22:58:07.913Z,6.00
2019-02-15T23:00:45.946Z,6.47
2019-02-15T23:03:15.222Z,12.37
2019-02-15T23:05:43.629Z,7.17
2019-02-15T23:08:12.117Z,7.30
2019-02-15T23:10:40.621Z,5.20
2019-02-15T23:13:09.114Z,5.20
2019-02-15T23:15:37.485Z,5.23
2019-02-15T23:18:05.909Z,5.20
2019-02-15T23:20:34.302Z,5.57
2019-02-15T23:23:03.118Z,5.13
2019-02-15T23:25:31.798Z,5.00
2019-02-15T23:28:00.194Z,5.57
2019-02-15T23:30:28.615Z,5.90
2019-02-15T23:32:57.281Z,5.13
2019-02-15T23:35:25.674Z,5.53
2019-02-15T23:37:54.146Z,6.20
2019-02-15T23:40:22.613Z,5.30
2019-02-15T23:42:51.050Z,5.70
2019-02-15T23:45:19.542Z,5.57
2019-02-15T23:47:48.259Z,6.00
2019-02-15T23:50:16.858Z,5.23
2019-02-15T23:52:45.472Z,5.83
2019-02-15T23:55:13.924Z,5.17
2019-02-15T23:57:42.338Z,5.40
